Maunabo, Puerto Rico
Current Conditions -  °F | °C
As of 2:53 PM on Tuesday 27 Jan 2015 (Local Time) from TJNR Reporting Station
Overcast Overcast  
Wind Chill: 82°   Ceiling: 6500
Heat Index: 86°   Visibility: 10mi
Dew Point: 71°   Wind: 10mph
Humidity: 69%   Direction: 160°SSE
Pressure: 29.99"   Gusts: NA
Location:  18.01°N, 65.9°W
Report Text: TJNR 271853Z AUTO 16009KT 10SM OVC065 28/22 A2999 RMK AO2 RAE03 SLP156 P0000 T02780217 $
Loading
Personal Weather Stations






























Interactive Weather Map New forecast layout! Learn more

10-Day Weather Forecast

Advertisements
Track Severe Weather on mobile